sensor_id;sensor_type;location;lat;lon;timestamp;P1;durP1;ratioP1;P2;durP2;ratioP2
77602;SDS011;66771;52.434;17.056;2023-02-15T00:00:26;225.50;;;97.50;;
77602;SDS011;66771;52.434;17.056;2023-02-15T00:03:24;242.40;;;99.90;;
77602;SDS011;66771;52.434;17.056;2023-02-15T00:05:56;242.60;;;103.80;;
77602;SDS011;66771;52.434;17.056;2023-02-15T00:08:27;257.60;;;106.00;;
77602;SDS011;66771;52.434;17.056;2023-02-15T00:14:46;273.00;;;110.60;;
77602;SDS011;66771;52.434;17.056;2023-02-15T00:17:22;269.20;;;107.50;;
77602;SDS011;66771;52.434;17.056;2023-02-15T00:19:56;264.00;;;105.30;;
77602;SDS011;66771;52.434;17.056;2023-02-15T00:22:28;245.50;;;100.10;;
77602;SDS011;66771;52.434;17.056;2023-02-15T00:25:03;275.30;;;109.50;;
77602;SDS011;66771;52.434;17.056;2023-02-15T00:27:33;271.10;;;109.70;;
77602;SDS011;66771;52.434;17.056;2023-02-15T00:30:05;269.60;;;109.00;;
77602;SDS011;66771;52.434;17.056;2023-02-15T00:32:33;264.80;;;108.00;;
77602;SDS011;66771;52.434;17.056;2023-02-15T00:35:03;256.40;;;104.10;;
77602;SDS011;66771;52.434;17.056;2023-02-15T00:37:43;271.00;;;114.30;;
77602;SDS011;66771;52.434;17.056;2023-02-15T00:40:33;277.00;;;107.70;;
77602;SDS011;66771;52.434;17.056;2023-02-15T00:43:09;261.70;;;103.30;;
77602;SDS011;66771;52.434;17.056;2023-02-15T00:46:06;245.60;;;99.00;;
77602;SDS011;66771;52.434;17.056;2023-02-15T00:48:47;252.30;;;100.30;;
77602;SDS011;66771;52.434;17.056;2023-02-15T00:51:44;246.80;;;103.40;;
77602;SDS011;66771;52.434;17.056;2023-02-15T00:54:22;233.60;;;97.10;;
77602;SDS011;66771;52.434;17.056;2023-02-15T00:57:01;266.50;;;109.00;;
77602;SDS011;66771;52.434;17.056;2023-02-15T00:59:31;260.40;;;108.50;;
77602;SDS011;66771;52.434;17.056;2023-02-15T01:01:58;278.90;;;114.40;;
77602;SDS011;66771;52.434;17.056;2023-02-15T01:04:39;266.20;;;111.20;;
77602;SDS011;66771;52.434;17.056;2023-02-15T01:07:16;257.00;;;111.10;;
77602;SDS011;66771;52.434;17.056;2023-02-15T01:10:04;272.00;;;113.70;;
77602;SDS011;66771;52.434;17.056;2023-02-15T01:12:37;251.70;;;107.70;;
77602;SDS011;66771;52.434;17.056;2023-02-15T01:15:24;248.10;;;103.80;;
77602;SDS011;66771;52.434;17.056;2023-02-15T01:18:01;257.60;;;103.40;;
77602;SDS011;66771;52.434;17.056;2023-02-15T01:20:34;248.60;;;104.20;;
77602;SDS011;66771;52.434;17.056;2023-02-15T01:23:14;237.00;;;101.60;;
77602;SDS011;66771;52.434;17.056;2023-02-15T01:25:41;250.00;;;104.20;;
77602;SDS011;66771;52.434;17.056;2023-02-15T01:28:17;251.40;;;104.80;;
77602;SDS011;66771;52.434;17.056;2023-02-15T01:30:44;240.00;;;105.70;;
77602;SDS011;66771;52.434;17.056;2023-02-15T01:33:14;238.30;;;105.70;;
77602;SDS011;66771;52.434;17.056;2023-02-15T01:36:05;257.10;;;108.80;;
77602;SDS011;66771;52.434;17.056;2023-02-15T01:38:41;243.40;;;98.80;;
77602;SDS011;66771;52.434;17.056;2023-02-15T01:41:11;247.40;;;105.00;;
77602;SDS011;66771;52.434;17.056;2023-02-15T01:44:53;244.70;;;99.40;;
77602;SDS011;66771;52.434;17.056;2023-02-15T01:47:14;246.30;;;102.90;;
77602;SDS011;66771;52.434;17.056;2023-02-15T01:49:58;241.60;;;99.30;;
77602;SDS011;66771;52.434;17.056;2023-02-15T01:52:35;218.10;;;93.80;;
77602;SDS011;66771;52.434;17.056;2023-02-15T01:55:16;228.10;;;99.50;;
77602;SDS011;66771;52.434;17.056;2023-02-15T01:58:25;230.40;;;97.60;;
77602;SDS011;66771;52.434;17.056;2023-02-15T02:00:57;219.20;;;92.90;;
77602;SDS011;66771;52.434;17.056;2023-02-15T02:06:30;224.60;;;95.90;;
77602;SDS011;66771;52.434;17.056;2023-02-15T02:09:01;206.50;;;93.20;;
77602;SDS011;66771;52.434;17.056;2023-02-15T02:11:28;229.20;;;96.60;;
77602;SDS011;66771;52.434;17.056;2023-02-15T02:13:55;211.10;;;86.50;;
77602;SDS011;66771;52.434;17.056;2023-02-15T02:16:38;205.00;;;87.30;;
77602;SDS011;66771;52.434;17.056;2023-02-15T02:24:56;208.40;;;90.60;;
77602;SDS011;66771;52.434;17.056;2023-02-15T02:33:01;212.10;;;89.60;;
77602;SDS011;66771;52.434;17.056;2023-02-15T02:45:57;174.90;;;77.60;;
77602;SDS011;66771;52.434;17.056;2023-02-15T02:48:29;179.10;;;78.40;;
77602;SDS011;66771;52.434;17.056;2023-02-15T02:50:58;172.10;;;78.10;;
77602;SDS011;66771;52.434;17.056;2023-02-15T02:53:25;167.30;;;74.20;;
77602;SDS011;66771;52.434;17.056;2023-02-15T02:55:56;165.90;;;76.40;;
77602;SDS011;66771;52.434;17.056;2023-02-15T03:01:02;174.20;;;79.50;;
77602;SDS011;66771;52.434;17.056;2023-02-15T03:03:42;180.30;;;80.30;;
77602;SDS011;66771;52.434;17.056;2023-02-15T03:06:24;181.60;;;83.10;;
77602;SDS011;66771;52.434;17.056;2023-02-15T03:09:01;156.20;;;74.60;;
77602;SDS011;66771;52.434;17.056;2023-02-15T03:11:41;170.10;;;74.40;;
77602;SDS011;66771;52.434;17.056;2023-02-15T03:14:10;156.80;;;75.20;;
77602;SDS011;66771;52.434;17.056;2023-02-15T03:16:40;162.60;;;73.30;;
77602;SDS011;66771;52.434;17.056;2023-02-15T03:19:12;158.60;;;70.70;;
77602;SDS011;66771;52.434;17.056;2023-02-15T03:25:04;146.50;;;72.00;;
77602;SDS011;66771;52.434;17.056;2023-02-15T03:27:27;161.80;;;70.50;;
77602;SDS011;66771;52.434;17.056;2023-02-15T03:30:03;153.40;;;73.30;;
77602;SDS011;66771;52.434;17.056;2023-02-15T03:32:35;144.00;;;68.00;;
77602;SDS011;66771;52.434;17.056;2023-02-15T03:35:06;162.30;;;72.90;;
77602;SDS011;66771;52.434;17.056;2023-02-15T03:40:24;142.20;;;63.70;;
77602;SDS011;66771;52.434;17.056;2023-02-15T03:43:12;130.40;;;60.90;;
77602;SDS011;66771;52.434;17.056;2023-02-15T03:45:45;135.80;;;63.40;;
77602;SDS011;66771;52.434;17.056;2023-02-15T03:48:27;129.00;;;62.50;;
77602;SDS011;66771;52.434;17.056;2023-02-15T03:51:00;125.00;;;58.40;;
77602;SDS011;66771;52.434;17.056;2023-02-15T03:53:49;134.00;;;61.00;;
77602;SDS011;66771;52.434;17.056;2023-02-15T03:56:18;136.60;;;63.30;;
77602;SDS011;66771;52.434;17.056;2023-02-15T03:58:45;135.30;;;64.10;;
77602;SDS011;66771;52.434;17.056;2023-02-15T04:01:34;133.60;;;63.80;;
77602;SDS011;66771;52.434;17.056;2023-02-15T04:04:25;142.60;;;63.30;;
77602;SDS011;66771;52.434;17.056;2023-02-15T04:06:56;144.30;;;65.00;;
77602;SDS011;66771;52.434;17.056;2023-02-15T04:09:23;130.10;;;63.50;;
77602;SDS011;66771;52.434;17.056;2023-02-15T04:12:09;127.80;;;62.20;;
77602;SDS011;66771;52.434;17.056;2023-02-15T04:14:35;124.40;;;58.50;;
77602;SDS011;66771;52.434;17.056;2023-02-15T04:17:21;123.00;;;58.70;;
77602;SDS011;66771;52.434;17.056;2023-02-15T04:19:47;123.80;;;57.00;;
77602;SDS011;66771;52.434;17.056;2023-02-15T04:22:33;111.00;;;53.60;;
77602;SDS011;66771;52.434;17.056;2023-02-15T04:25:18;119.30;;;57.20;;
77602;SDS011;66771;52.434;17.056;2023-02-15T04:27:50;124.40;;;59.90;;
77602;SDS011;66771;52.434;17.056;2023-02-15T04:30:20;125.10;;;59.70;;
77602;SDS011;66771;52.434;17.056;2023-02-15T04:32:49;118.10;;;58.90;;
77602;SDS011;66771;52.434;17.056;2023-02-15T04:35:15;121.80;;;61.50;;
77602;SDS011;66771;52.434;17.056;2023-02-15T04:37:42;125.40;;;60.80;;
77602;SDS011;66771;52.434;17.056;2023-02-15T04:40:12;131.00;;;60.40;;
77602;SDS011;66771;52.434;17.056;2023-02-15T04:42:40;116.70;;;57.90;;
77602;SDS011;66771;52.434;17.056;2023-02-15T04:45:07;120.10;;;57.30;;
77602;SDS011;66771;52.434;17.056;2023-02-15T04:47:35;107.90;;;56.50;;
77602;SDS011;66771;52.434;17.056;2023-02-15T04:50:02;98.40;;;53.50;;
77602;SDS011;66771;52.434;17.056;2023-02-15T04:52:29;115.60;;;55.50;;
77602;SDS011;66771;52.434;17.056;2023-02-15T04:54:55;117.40;;;57.00;;
77602;SDS011;66771;52.434;17.056;2023-02-15T04:57:22;106.40;;;54.60;;
77602;SDS011;66771;52.434;17.056;2023-02-15T04:59:49;118.30;;;57.30;;
77602;SDS011;66771;52.434;17.056;2023-02-15T05:02:16;119.10;;;57.10;;
77602;SDS011;66771;52.434;17.056;2023-02-15T05:04:43;120.30;;;57.50;;
77602;SDS011;66771;52.434;17.056;2023-02-15T05:07:09;108.90;;;54.70;;
77602;SDS011;66771;52.434;17.056;2023-02-15T05:09:36;114.90;;;56.90;;
77602;SDS011;66771;52.434;17.056;2023-02-15T05:12:03;106.00;;;53.70;;
77602;SDS011;66771;52.434;17.056;2023-02-15T05:14:30;103.40;;;53.20;;
77602;SDS011;66771;52.434;17.056;2023-02-15T05:16:56;110.00;;;50.80;;
77602;SDS011;66771;52.434;17.056;2023-02-15T05:19:24;102.10;;;50.20;;
77602;SDS011;66771;52.434;17.056;2023-02-15T05:21:51;96.70;;;49.30;;
77602;SDS011;66771;52.434;17.056;2023-02-15T05:24:18;101.60;;;50.70;;
77602;SDS011;66771;52.434;17.056;2023-02-15T05:27:03;98.30;;;50.60;;
77602;SDS011;66771;52.434;17.056;2023-02-15T05:29:49;108.60;;;54.20;;
77602;SDS011;66771;52.434;17.056;2023-02-15T05:32:15;110.40;;;54.50;;
77602;SDS011;66771;52.434;17.056;2023-02-15T05:34:42;103.00;;;53.10;;
77602;SDS011;66771;52.434;17.056;2023-02-15T05:37:09;108.60;;;55.00;;
77602;SDS011;66771;52.434;17.056;2023-02-15T05:39:35;100.00;;;51.00;;
77602;SDS011;66771;52.434;17.056;2023-02-15T05:42:02;96.90;;;49.60;;
77602;SDS011;66771;52.434;17.056;2023-02-15T05:44:29;96.10;;;49.70;;
77602;SDS011;66771;52.434;17.056;2023-02-15T05:46:56;95.80;;;48.40;;
77602;SDS011;66771;52.434;17.056;2023-02-15T05:49:22;92.30;;;47.70;;
77602;SDS011;66771;52.434;17.056;2023-02-15T05:51:49;92.00;;;48.40;;
77602;SDS011;66771;52.434;17.056;2023-02-15T05:54:16;105.30;;;52.50;;
77602;SDS011;66771;52.434;17.056;2023-02-15T05:56:42;103.50;;;50.70;;
77602;SDS011;66771;52.434;17.056;2023-02-15T05:59:09;106.10;;;49.90;;
77602;SDS011;66771;52.434;17.056;2023-02-15T06:01:36;97.10;;;50.50;;
77602;SDS011;66771;52.434;17.056;2023-02-15T06:04:03;108.10;;;51.00;;
77602;SDS011;66771;52.434;17.056;2023-02-15T06:06:30;107.20;;;50.70;;
77602;SDS011;66771;52.434;17.056;2023-02-15T06:08:56;95.20;;;46.90;;
77602;SDS011;66771;52.434;17.056;2023-02-15T06:11:23;92.60;;;47.40;;
77602;SDS011;66771;52.434;17.056;2023-02-15T06:13:50;87.10;;;45.40;;
77602;SDS011;66771;52.434;17.056;2023-02-15T06:16:17;92.50;;;46.50;;
77602;SDS011;66771;52.434;17.056;2023-02-15T06:18:46;102.80;;;49.70;;
77602;SDS011;66771;52.434;17.056;2023-02-15T06:21:12;100.90;;;50.40;;
77602;SDS011;66771;52.434;17.056;2023-02-15T06:23:39;93.20;;;49.40;;
77602;SDS011;66771;52.434;17.056;2023-02-15T06:26:06;96.40;;;52.40;;
77602;SDS011;66771;52.434;17.056;2023-02-15T06:28:33;94.60;;;49.00;;
77602;SDS011;66771;52.434;17.056;2023-02-15T06:31:00;99.60;;;51.30;;
77602;SDS011;66771;52.434;17.056;2023-02-15T06:33:27;103.00;;;51.50;;
77602;SDS011;66771;52.434;17.056;2023-02-15T06:35:55;107.40;;;52.50;;
77602;SDS011;66771;52.434;17.056;2023-02-15T06:38:22;97.70;;;51.20;;
77602;SDS011;66771;52.434;17.056;2023-02-15T06:40:48;101.80;;;49.50;;
77602;SDS011;66771;52.434;17.056;2023-02-15T06:43:15;89.00;;;48.20;;
77602;SDS011;66771;52.434;17.056;2023-02-15T06:45:42;91.10;;;48.60;;
77602;SDS011;66771;52.434;17.056;2023-02-15T06:48:09;106.30;;;50.70;;
77602;SDS011;66771;52.434;17.056;2023-02-15T06:50:37;108.70;;;52.20;;
77602;SDS011;66771;52.434;17.056;2023-02-15T06:53:04;106.00;;;50.60;;
77602;SDS011;66771;52.434;17.056;2023-02-15T06:55:31;108.60;;;54.80;;
77602;SDS011;66771;52.434;17.056;2023-02-15T06:57:58;102.40;;;53.30;;
77602;SDS011;66771;52.434;17.056;2023-02-15T07:00:24;101.70;;;52.30;;
77602;SDS011;66771;52.434;17.056;2023-02-15T07:02:54;102.60;;;53.00;;
77602;SDS011;66771;52.434;17.056;2023-02-15T07:05:22;104.80;;;54.40;;
77602;SDS011;66771;52.434;17.056;2023-02-15T07:07:49;97.30;;;51.60;;
77602;SDS011;66771;52.434;17.056;2023-02-15T07:10:16;88.60;;;46.50;;
77602;SDS011;66771;52.434;17.056;2023-02-15T07:12:43;95.20;;;46.90;;
77602;SDS011;66771;52.434;17.056;2023-02-15T07:15:13;109.40;;;53.90;;
77602;SDS011;66771;52.434;17.056;2023-02-15T07:17:41;112.20;;;58.00;;
77602;SDS011;66771;52.434;17.056;2023-02-15T07:20:13;105.70;;;54.10;;
77602;SDS011;66771;52.434;17.056;2023-02-15T07:22:41;119.00;;;62.10;;
77602;SDS011;66771;52.434;17.056;2023-02-15T07:25:09;135.70;;;65.50;;
77602;SDS011;66771;52.434;17.056;2023-02-15T07:27:39;128.40;;;67.40;;
77602;SDS011;66771;52.434;17.056;2023-02-15T07:30:08;125.80;;;63.60;;
77602;SDS011;66771;52.434;17.056;2023-02-15T07:32:37;122.60;;;62.50;;
77602;SDS011;66771;52.434;17.056;2023-02-15T07:35:24;118.00;;;60.70;;
77602;SDS011;66771;52.434;17.056;2023-02-15T07:37:51;108.30;;;56.60;;
77602;SDS011;66771;52.434;17.056;2023-02-15T07:40:19;105.70;;;53.60;;
77602;SDS011;66771;52.434;17.056;2023-02-15T07:42:50;110.80;;;58.50;;
77602;SDS011;66771;52.434;17.056;2023-02-15T07:45:21;109.40;;;57.40;;
77602;SDS011;66771;52.434;17.056;2023-02-15T07:47:48;113.90;;;59.70;;
77602;SDS011;66771;52.434;17.056;2023-02-15T07:50:15;112.70;;;59.60;;
77602;SDS011;66771;52.434;17.056;2023-02-15T07:52:42;114.70;;;60.10;;
77602;SDS011;66771;52.434;17.056;2023-02-15T07:55:09;127.80;;;60.70;;
77602;SDS011;66771;52.434;17.056;2023-02-15T07:57:41;121.40;;;58.90;;
77602;SDS011;66771;52.434;17.056;2023-02-15T08:00:12;108.40;;;57.30;;
77602;SDS011;66771;52.434;17.056;2023-02-15T08:02:40;105.10;;;57.10;;
77602;SDS011;66771;52.434;17.056;2023-02-15T08:05:06;98.00;;;54.50;;
77602;SDS011;66771;52.434;17.056;2023-02-15T08:07:33;96.80;;;53.40;;
77602;SDS011;66771;52.434;17.056;2023-02-15T08:10:00;101.20;;;51.70;;
77602;SDS011;66771;52.434;17.056;2023-02-15T08:12:27;90.70;;;51.80;;
77602;SDS011;66771;52.434;17.056;2023-02-15T08:14:53;94.60;;;51.00;;
77602;SDS011;66771;52.434;17.056;2023-02-15T08:17:20;79.80;;;44.00;;
77602;SDS011;66771;52.434;17.056;2023-02-15T08:19:47;78.80;;;45.10;;
77602;SDS011;66771;52.434;17.056;2023-02-15T08:22:14;79.10;;;45.20;;
77602;SDS011;66771;52.434;17.056;2023-02-15T08:24:41;75.20;;;42.40;;
77602;SDS011;66771;52.434;17.056;2023-02-15T08:27:09;81.40;;;44.80;;
77602;SDS011;66771;52.434;17.056;2023-02-15T08:29:37;83.80;;;44.60;;
77602;SDS011;66771;52.434;17.056;2023-02-15T08:32:08;70.80;;;41.40;;
77602;SDS011;66771;52.434;17.056;2023-02-15T08:34:38;75.20;;;42.80;;
77602;SDS011;66771;52.434;17.056;2023-02-15T08:37:07;68.80;;;41.00;;
77602;SDS011;66771;52.434;17.056;2023-02-15T08:39:33;72.70;;;42.70;;
77602;SDS011;66771;52.434;17.056;2023-02-15T08:42:00;78.40;;;44.20;;
77602;SDS011;66771;52.434;17.056;2023-02-15T08:44:27;69.90;;;41.10;;
77602;SDS011;66771;52.434;17.056;2023-02-15T08:46:54;69.80;;;39.20;;
77602;SDS011;66771;52.434;17.056;2023-02-15T08:49:21;62.80;;;38.50;;
77602;SDS011;66771;52.434;17.056;2023-02-15T08:51:49;65.30;;;38.40;;
77602;SDS011;66771;52.434;17.056;2023-02-15T08:54:17;68.40;;;39.80;;
77602;SDS011;66771;52.434;17.056;2023-02-15T08:56:46;62.10;;;38.60;;
77602;SDS011;66771;52.434;17.056;2023-02-15T08:59:17;59.70;;;36.60;;
77602;SDS011;66771;52.434;17.056;2023-02-15T09:01:49;64.00;;;37.10;;
77602;SDS011;66771;52.434;17.056;2023-02-15T09:04:18;63.00;;;36.80;;
77602;SDS011;66771;52.434;17.056;2023-02-15T09:06:46;56.70;;;35.80;;
77602;SDS011;66771;52.434;17.056;2023-02-15T09:09:15;61.90;;;37.10;;
77602;SDS011;66771;52.434;17.056;2023-02-15T09:11:43;58.20;;;36.50;;
77602;SDS011;66771;52.434;17.056;2023-02-15T09:14:13;61.40;;;36.70;;
77602;SDS011;66771;52.434;17.056;2023-02-15T09:16:43;55.20;;;35.10;;
77602;SDS011;66771;52.434;17.056;2023-02-15T09:19:18;60.00;;;35.20;;
77602;SDS011;66771;52.434;17.056;2023-02-15T09:21:47;55.40;;;32.80;;
77602;SDS011;66771;52.434;17.056;2023-02-15T09:24:15;52.50;;;32.20;;
77602;SDS011;66771;52.434;17.056;2023-02-15T09:26:44;57.50;;;33.90;;
77602;SDS011;66771;52.434;17.056;2023-02-15T09:29:13;59.90;;;36.40;;
77602;SDS011;66771;52.434;17.056;2023-02-15T09:31:41;56.20;;;35.60;;
77602;SDS011;66771;52.434;17.056;2023-02-15T09:34:13;53.80;;;35.40;;
77602;SDS011;66771;52.434;17.056;2023-02-15T09:36:42;50.60;;;31.70;;
77602;SDS011;66771;52.434;17.056;2023-02-15T09:39:11;49.60;;;32.50;;
77602;SDS011;66771;52.434;17.056;2023-02-15T09:44:27;56.00;;;32.90;;
77602;SDS011;66771;52.434;17.056;2023-02-15T09:56:06;51.50;;;32.30;;
77602;SDS011;66771;52.434;17.056;2023-02-15T10:01:33;59.20;;;34.70;;
77602;SDS011;66771;52.434;17.056;2023-02-15T10:18:00;49.20;;;32.30;;
77602;SDS011;66771;52.434;17.056;2023-02-15T10:23:35;52.90;;;33.50;;
77602;SDS011;66771;52.434;17.056;2023-02-15T10:29:38;49.70;;;31.80;;
77602;SDS011;66771;52.434;17.056;2023-02-15T10:32:03;52.00;;;31.80;;
77602;SDS011;66771;52.434;17.056;2023-02-15T10:35:00;49.70;;;31.90;;
77602;SDS011;66771;52.434;17.056;2023-02-15T10:45:16;53.40;;;33.30;;
77602;SDS011;66771;52.434;17.056;2023-02-15T10:51:04;52.00;;;33.80;;
77602;SDS011;66771;52.434;17.056;2023-02-15T10:59:31;49.30;;;32.20;;
77602;SDS011;66771;52.434;17.056;2023-02-15T11:07:33;58.60;;;36.60;;
77602;SDS011;66771;52.434;17.056;2023-02-15T11:10:13;62.60;;;37.00;;
77602;SDS011;66771;52.434;17.056;2023-02-15T11:12:45;60.80;;;38.90;;
77602;SDS011;66771;52.434;17.056;2023-02-15T11:18:16;55.80;;;35.00;;
77602;SDS011;66771;52.434;17.056;2023-02-15T11:20:55;55.40;;;36.50;;
77602;SDS011;66771;52.434;17.056;2023-02-15T11:23:27;53.10;;;36.90;;
77602;SDS011;66771;52.434;17.056;2023-02-15T11:25:56;55.50;;;36.40;;
77602;SDS011;66771;52.434;17.056;2023-02-15T11:31:16;57.30;;;37.50;;
77602;SDS011;66771;52.434;17.056;2023-02-15T11:33:52;56.40;;;38.60;;
77602;SDS011;66771;52.434;17.056;2023-02-15T11:36:26;55.90;;;38.40;;
77602;SDS011;66771;52.434;17.056;2023-02-15T11:39:01;55.90;;;38.60;;
77602;SDS011;66771;52.434;17.056;2023-02-15T11:41:36;55.30;;;37.10;;
77602;SDS011;66771;52.434;17.056;2023-02-15T11:44:16;52.80;;;38.10;;
77602;SDS011;66771;52.434;17.056;2023-02-15T11:46:49;54.70;;;37.40;;
77602;SDS011;66771;52.434;17.056;2023-02-15T11:49:29;58.90;;;39.90;;
77602;SDS011;66771;52.434;17.056;2023-02-15T11:51:59;55.50;;;39.10;;
77602;SDS011;66771;52.434;17.056;2023-02-15T11:54:29;58.20;;;40.50;;
77602;SDS011;66771;52.434;17.056;2023-02-15T11:57:02;54.00;;;38.20;;
77602;SDS011;66771;52.434;17.056;2023-02-15T11:59:42;57.20;;;40.30;;
77602;SDS011;66771;52.434;17.056;2023-02-15T12:02:17;55.70;;;39.70;;
77602;SDS011;66771;52.434;17.056;2023-02-15T12:04:56;59.00;;;41.10;;
77602;SDS011;66771;52.434;17.056;2023-02-15T12:07:45;58.70;;;41.40;;
77602;SDS011;66771;52.434;17.056;2023-02-15T12:12:46;53.10;;;40.00;;
77602;SDS011;66771;52.434;17.056;2023-02-15T12:15:13;59.60;;;41.20;;
77602;SDS011;66771;52.434;17.056;2023-02-15T12:17:42;60.50;;;42.70;;
77602;SDS011;66771;52.434;17.056;2023-02-15T12:22:46;57.20;;;41.20;;
77602;SDS011;66771;52.434;17.056;2023-02-15T12:25:29;60.90;;;42.70;;
77602;SDS011;66771;52.434;17.056;2023-02-15T12:27:57;57.80;;;41.30;;
77602;SDS011;66771;52.434;17.056;2023-02-15T12:30:36;57.30;;;40.50;;
77602;SDS011;66771;52.434;17.056;2023-02-15T12:36:15;61.20;;;42.20;;
77602;SDS011;66771;52.434;17.056;2023-02-15T12:41:56;62.70;;;43.40;;
77602;SDS011;66771;52.434;17.056;2023-02-15T12:44:30;62.30;;;42.20;;
77602;SDS011;66771;52.434;17.056;2023-02-15T12:47:01;62.60;;;44.10;;
77602;SDS011;66771;52.434;17.056;2023-02-15T12:49:31;65.10;;;46.20;;
77602;SDS011;66771;52.434;17.056;2023-02-15T12:52:06;59.80;;;43.60;;
77602;SDS011;66771;52.434;17.056;2023-02-15T12:54:50;65.40;;;43.70;;
77602;SDS011;66771;52.434;17.056;2023-02-15T12:57:30;62.00;;;42.60;;
77602;SDS011;66771;52.434;17.056;2023-02-15T13:00:03;67.70;;;44.90;;
77602;SDS011;66771;52.434;17.056;2023-02-15T13:05:19;67.30;;;46.50;;
77602;SDS011;66771;52.434;17.056;2023-02-15T13:07:54;66.70;;;44.60;;
77602;SDS011;66771;52.434;17.056;2023-02-15T13:13:26;77.50;;;47.20;;
77602;SDS011;66771;52.434;17.056;2023-02-15T13:16:03;79.60;;;51.10;;
77602;SDS011;66771;52.434;17.056;2023-02-15T13:18:39;78.10;;;48.50;;
77602;SDS011;66771;52.434;17.056;2023-02-15T13:21:11;72.30;;;47.40;;
77602;SDS011;66771;52.434;17.056;2023-02-15T13:26:29;75.20;;;46.00;;
77602;SDS011;66771;52.434;17.056;2023-02-15T13:28:59;70.40;;;44.70;;
77602;SDS011;66771;52.434;17.056;2023-02-15T13:31:35;70.10;;;45.50;;
77602;SDS011;66771;52.434;17.056;2023-02-15T13:34:15;73.10;;;47.40;;
77602;SDS011;66771;52.434;17.056;2023-02-15T13:39:45;83.60;;;49.10;;
77602;SDS011;66771;52.434;17.056;2023-02-15T13:42:19;74.70;;;48.70;;
77602;SDS011;66771;52.434;17.056;2023-02-15T13:50:20;81.00;;;49.20;;
77602;SDS011;66771;52.434;17.056;2023-02-15T13:55:49;81.30;;;50.30;;
77602;SDS011;66771;52.434;17.056;2023-02-15T14:01:24;77.90;;;47.80;;
77602;SDS011;66771;52.434;17.056;2023-02-15T14:09:50;73.50;;;47.10;;
77602;SDS011;66771;52.434;17.056;2023-02-15T14:20:55;83.70;;;51.90;;
77602;SDS011;66771;52.434;17.056;2023-02-15T14:29:10;80.80;;;50.00;;
77602;SDS011;66771;52.434;17.056;2023-02-15T14:31:47;83.20;;;50.10;;
77602;SDS011;66771;52.434;17.056;2023-02-15T14:34:22;78.20;;;49.60;;
77602;SDS011;66771;52.434;17.056;2023-02-15T14:37:11;84.60;;;51.50;;
77602;SDS011;66771;52.434;17.056;2023-02-15T14:42:35;87.90;;;51.00;;
77602;SDS011;66771;52.434;17.056;2023-02-15T14:48:05;79.60;;;49.10;;
77602;SDS011;66771;52.434;17.056;2023-02-15T14:50:42;80.90;;;50.50;;
77602;SDS011;66771;52.434;17.056;2023-02-15T15:01:16;83.90;;;50.20;;
77602;SDS011;66771;52.434;17.056;2023-02-15T15:04:05;93.40;;;53.30;;
77602;SDS011;66771;52.434;17.056;2023-02-15T15:06:35;88.90;;;49.50;;
77602;SDS011;66771;52.434;17.056;2023-02-15T15:09:12;84.20;;;51.30;;
77602;SDS011;66771;52.434;17.056;2023-02-15T15:11:42;87.80;;;51.00;;
77602;SDS011;66771;52.434;17.056;2023-02-15T15:14:36;86.40;;;50.50;;
77602;SDS011;66771;52.434;17.056;2023-02-15T15:17:01;90.90;;;51.10;;
77602;SDS011;66771;52.434;17.056;2023-02-15T15:22:22;101.30;;;53.30;;
77602;SDS011;66771;52.434;17.056;2023-02-15T15:32:52;97.10;;;54.80;;
77602;SDS011;66771;52.434;17.056;2023-02-15T15:49:31;106.20;;;58.10;;
77602;SDS011;66771;52.434;17.056;2023-02-15T15:52:03;106.20;;;59.40;;
77602;SDS011;66771;52.434;17.056;2023-02-15T15:54:40;100.00;;;56.10;;
77602;SDS011;66771;52.434;17.056;2023-02-15T16:00:03;93.00;;;51.70;;
77602;SDS011;66771;52.434;17.056;2023-02-15T16:02:49;100.10;;;55.10;;
77602;SDS011;66771;52.434;17.056;2023-02-15T16:05:19;98.30;;;54.50;;
77602;SDS011;66771;52.434;17.056;2023-02-15T16:07:46;98.90;;;54.10;;
77602;SDS011;66771;52.434;17.056;2023-02-15T16:10:23;103.20;;;54.90;;
77602;SDS011;66771;52.434;17.056;2023-02-15T16:12:54;98.80;;;55.70;;
77602;SDS011;66771;52.434;17.056;2023-02-15T16:15:22;101.40;;;55.80;;
77602;SDS011;66771;52.434;17.056;2023-02-15T16:17:55;105.30;;;55.00;;
77602;SDS011;66771;52.434;17.056;2023-02-15T16:20:31;109.10;;;57.20;;
77602;SDS011;66771;52.434;17.056;2023-02-15T16:26:11;104.80;;;57.20;;
77602;SDS011;66771;52.434;17.056;2023-02-15T16:28:54;109.30;;;57.50;;
77602;SDS011;66771;52.434;17.056;2023-02-15T16:31:21;103.40;;;56.40;;
77602;SDS011;66771;52.434;17.056;2023-02-15T16:33:51;120.50;;;61.90;;
77602;SDS011;66771;52.434;17.056;2023-02-15T16:41:22;105.10;;;54.90;;
77602;SDS011;66771;52.434;17.056;2023-02-15T16:43:51;108.50;;;55.40;;
77602;SDS011;66771;52.434;17.056;2023-02-15T16:46:30;104.80;;;56.60;;
77602;SDS011;66771;52.434;17.056;2023-02-15T16:49:01;122.40;;;64.30;;
77602;SDS011;66771;52.434;17.056;2023-02-15T16:51:31;113.40;;;62.60;;
77602;SDS011;66771;52.434;17.056;2023-02-15T16:54:03;126.90;;;69.70;;
77602;SDS011;66771;52.434;17.056;2023-02-15T16:56:33;129.80;;;68.60;;
77602;SDS011;66771;52.434;17.056;2023-02-15T16:59:02;125.40;;;64.50;;
77602;SDS011;66771;52.434;17.056;2023-02-15T17:01:30;124.30;;;64.60;;
77602;SDS011;66771;52.434;17.056;2023-02-15T17:04:12;119.90;;;62.40;;
77602;SDS011;66771;52.434;17.056;2023-02-15T17:06:57;120.10;;;64.00;;
77602;SDS011;66771;52.434;17.056;2023-02-15T17:09:24;119.70;;;65.90;;
77602;SDS011;66771;52.434;17.056;2023-02-15T17:11:51;133.90;;;68.10;;
77602;SDS011;66771;52.434;17.056;2023-02-15T17:14:20;131.50;;;66.40;;
77602;SDS011;66771;52.434;17.056;2023-02-15T17:16:53;138.20;;;69.30;;
77602;SDS011;66771;52.434;17.056;2023-02-15T17:19:29;145.20;;;72.60;;
77602;SDS011;66771;52.434;17.056;2023-02-15T17:22:00;132.20;;;71.90;;
77602;SDS011;66771;52.434;17.056;2023-02-15T17:26:57;153.50;;;79.30;;
77602;SDS011;66771;52.434;17.056;2023-02-15T17:32:06;170.40;;;85.50;;
77602;SDS011;66771;52.434;17.056;2023-02-15T17:37:12;164.40;;;81.00;;
77602;SDS011;66771;52.434;17.056;2023-02-15T17:39:49;155.50;;;80.60;;
77602;SDS011;66771;52.434;17.056;2023-02-15T17:42:15;143.90;;;70.70;;
77602;SDS011;66771;52.434;17.056;2023-02-15T17:44:42;143.10;;;72.10;;
77602;SDS011;66771;52.434;17.056;2023-02-15T17:47:11;140.20;;;71.30;;
77602;SDS011;66771;52.434;17.056;2023-02-15T17:49:43;140.50;;;74.00;;
77602;SDS011;66771;52.434;17.056;2023-02-15T17:52:13;152.00;;;76.60;;
77602;SDS011;66771;52.434;17.056;2023-02-15T17:54:40;146.80;;;73.80;;
77602;SDS011;66771;52.434;17.056;2023-02-15T17:57:27;135.40;;;71.50;;
77602;SDS011;66771;52.434;17.056;2023-02-15T17:59:55;154.80;;;77.80;;
77602;SDS011;66771;52.434;17.056;2023-02-15T18:02:41;137.50;;;70.40;;